Highland-University Park's Hourly Summary for Saturday, March 18, 2017
Hour Temp
(f)
RH
(%)
Solar Rad.
(MJ/m2)
Rainfall
(in)
Wind
(mph)
3/18/2017 12:00 AM 72 65 0 0 1.25
3/18/2017 1:00 AM 71 67 0 0 2.15
3/18/2017 2:00 AM 69 72 0 0 2.32
3/18/2017 3:00 AM 67 78 0 0 1.93
3/18/2017 4:00 AM 66 83 0 0 1.06
3/18/2017 5:00 AM 65 86 0 0 1.04
3/18/2017 6:00 AM 64 89 0 0 0.51
3/18/2017 7:00 AM 64 90 0 0 0.94
3/18/2017 8:00 AM 64 90 0.01 0 0.56
3/18/2017 9:00 AM 65 87 0.14 0 0.38
3/18/2017 10:00 AM 66 82 0.34 0 1.86
3/18/2017 11:00 AM 69 68 1.23 0 1.97
3/18/2017 12:00 PM 74 63 2.17 0 1.9
3/18/2017 1:00 PM 77 58 2.64 0 1.82
3/18/2017 2:00 PM 80 53 2.67 0 2.14
3/18/2017 3:00 PM 81 50 2.88 0 3.18
3/18/2017 4:00 PM 82 48 1.97 0 2.78
3/18/2017 5:00 PM 83 46 1.83 0 2.98
3/18/2017 6:00 PM 83 46 1.32 0 2.52
3/18/2017 7:00 PM 80 49 0.35 0 2.2
3/18/2017 8:00 PM 77 56 0.04 0 2.12
3/18/2017 9:00 PM 75 59 0 0 1.28
3/18/2017 10:00 PM 73 63 0 0 0.79
3/18/2017 11:00 PM 72 67 0 0 1.44
Data Summary 72 67 17.59 0.00 1.71